sensor_id;sensor_type;location;lat;lon;timestamp;P1;durP1;ratioP1;P2;durP2;ratioP2
17201;SDS011;8717;53.588;10.176;2023-11-21T00:00:26;10.43;;;8.00;;
17201;SDS011;8717;53.588;10.176;2023-11-21T00:02:52;11.03;;;8.90;;
17201;SDS011;8717;53.588;10.176;2023-11-21T00:05:21;11.43;;;8.93;;
17201;SDS011;8717;53.588;10.176;2023-11-21T00:07:48;10.90;;;9.00;;
17201;SDS011;8717;53.588;10.176;2023-11-21T00:10:16;15.00;;;9.70;;
17201;SDS011;8717;53.588;10.176;2023-11-21T00:12:43;10.97;;;9.23;;
17201;SDS011;8717;53.588;10.176;2023-11-21T00:15:10;11.90;;;9.27;;
17201;SDS011;8717;53.588;10.176;2023-11-21T00:17:37;11.13;;;8.83;;
17201;SDS011;8717;53.588;10.176;2023-11-21T00:20:05;11.33;;;8.40;;
17201;SDS011;8717;53.588;10.176;2023-11-21T00:22:34;12.03;;;8.67;;
17201;SDS011;8717;53.588;10.176;2023-11-21T00:25:01;12.67;;;8.57;;
17201;SDS011;8717;53.588;10.176;2023-11-21T00:27:29;13.40;;;8.33;;
17201;SDS011;8717;53.588;10.176;2023-11-21T00:29:55;9.53;;;8.13;;
17201;SDS011;8717;53.588;10.176;2023-11-21T00:32:22;11.63;;;8.70;;
17201;SDS011;8717;53.588;10.176;2023-11-21T00:34:49;11.70;;;9.10;;
17201;SDS011;8717;53.588;10.176;2023-11-21T00:37:16;15.73;;;10.17;;
17201;SDS011;8717;53.588;10.176;2023-11-21T00:39:44;14.97;;;9.20;;
17201;SDS011;8717;53.588;10.176;2023-11-21T00:42:11;12.67;;;9.67;;
17201;SDS011;8717;53.588;10.176;2023-11-21T00:44:37;14.77;;;10.30;;
17201;SDS011;8717;53.588;10.176;2023-11-21T00:47:05;15.80;;;10.10;;
17201;SDS011;8717;53.588;10.176;2023-11-21T00:49:33;18.40;;;10.80;;
17201;SDS011;8717;53.588;10.176;2023-11-21T00:51:59;16.13;;;10.37;;
17201;SDS011;8717;53.588;10.176;2023-11-21T00:54:26;15.27;;;10.57;;
17201;SDS011;8717;53.588;10.176;2023-11-21T00:56:54;15.83;;;10.60;;
17201;SDS011;8717;53.588;10.176;2023-11-21T00:59:21;13.53;;;10.80;;
17201;SDS011;8717;53.588;10.176;2023-11-21T01:01:49;15.73;;;10.77;;
17201;SDS011;8717;53.588;10.176;2023-11-21T01:04:16;15.67;;;10.53;;
17201;SDS011;8717;53.588;10.176;2023-11-21T01:06:42;18.40;;;10.97;;
17201;SDS011;8717;53.588;10.176;2023-11-21T01:09:10;15.97;;;10.73;;
17201;SDS011;8717;53.588;10.176;2023-11-21T01:11:37;16.93;;;11.63;;
17201;SDS011;8717;53.588;10.176;2023-11-21T01:14:05;18.53;;;11.87;;
17201;SDS011;8717;53.588;10.176;2023-11-21T01:16:33;16.93;;;11.97;;
17201;SDS011;8717;53.588;10.176;2023-11-21T01:19:02;18.70;;;11.80;;
17201;SDS011;8717;53.588;10.176;2023-11-21T01:21:29;14.90;;;11.03;;
17201;SDS011;8717;53.588;10.176;2023-11-21T01:23:56;15.23;;;10.63;;
17201;SDS011;8717;53.588;10.176;2023-11-21T01:26:23;14.67;;;10.90;;
17201;SDS011;8717;53.588;10.176;2023-11-21T01:28:50;13.87;;;10.80;;
17201;SDS011;8717;53.588;10.176;2023-11-21T01:31:18;12.73;;;9.60;;
17201;SDS011;8717;53.588;10.176;2023-11-21T01:33:46;16.20;;;10.17;;
17201;SDS011;8717;53.588;10.176;2023-11-21T01:36:13;11.97;;;8.90;;
17201;SDS011;8717;53.588;10.176;2023-11-21T01:38:40;12.33;;;8.97;;
17201;SDS011;8717;53.588;10.176;2023-11-21T01:41:08;11.57;;;8.07;;
17201;SDS011;8717;53.588;10.176;2023-11-21T01:43:36;11.90;;;8.47;;
17201;SDS011;8717;53.588;10.176;2023-11-21T01:46:04;11.37;;;9.30;;
17201;SDS011;8717;53.588;10.176;2023-11-21T01:48:33;11.97;;;8.93;;
17201;SDS011;8717;53.588;10.176;2023-11-21T01:51:00;11.20;;;8.90;;
17201;SDS011;8717;53.588;10.176;2023-11-21T01:53:28;12.70;;;9.40;;
17201;SDS011;8717;53.588;10.176;2023-11-21T01:55:55;14.27;;;9.30;;
17201;SDS011;8717;53.588;10.176;2023-11-21T01:58:22;12.00;;;8.67;;
17201;SDS011;8717;53.588;10.176;2023-11-21T02:00:50;11.30;;;8.80;;
17201;SDS011;8717;53.588;10.176;2023-11-21T02:03:20;9.80;;;8.53;;
17201;SDS011;8717;53.588;10.176;2023-11-21T02:05:49;11.93;;;8.70;;
17201;SDS011;8717;53.588;10.176;2023-11-21T02:08:17;10.33;;;8.50;;
17201;SDS011;8717;53.588;10.176;2023-11-21T02:10:44;9.10;;;7.93;;
17201;SDS011;8717;53.588;10.176;2023-11-21T02:13:12;10.73;;;8.57;;
17201;SDS011;8717;53.588;10.176;2023-11-21T02:15:41;9.33;;;8.27;;
17201;SDS011;8717;53.588;10.176;2023-11-21T02:18:08;10.67;;;8.40;;
17201;SDS011;8717;53.588;10.176;2023-11-21T02:20:36;9.90;;;8.03;;
17201;SDS011;8717;53.588;10.176;2023-11-21T02:23:08;11.80;;;8.70;;
17201;SDS011;8717;53.588;10.176;2023-11-21T02:25:35;9.73;;;7.70;;
17201;SDS011;8717;53.588;10.176;2023-11-21T02:28:03;11.07;;;8.20;;
17201;SDS011;8717;53.588;10.176;2023-11-21T02:30:31;11.27;;;8.20;;
17201;SDS011;8717;53.588;10.176;2023-11-21T02:32:58;9.70;;;7.77;;
17201;SDS011;8717;53.588;10.176;2023-11-21T02:35:25;9.80;;;7.47;;
17201;SDS011;8717;53.588;10.176;2023-11-21T02:37:52;9.27;;;7.47;;
17201;SDS011;8717;53.588;10.176;2023-11-21T02:40:20;10.87;;;7.63;;
17201;SDS011;8717;53.588;10.176;2023-11-21T02:42:49;9.40;;;8.00;;
17201;SDS011;8717;53.588;10.176;2023-11-21T02:45:17;12.00;;;8.17;;
17201;SDS011;8717;53.588;10.176;2023-11-21T02:47:45;10.57;;;8.13;;
17201;SDS011;8717;53.588;10.176;2023-11-21T02:50:14;9.97;;;8.10;;
17201;SDS011;8717;53.588;10.176;2023-11-21T02:52:41;11.67;;;8.23;;
17201;SDS011;8717;53.588;10.176;2023-11-21T02:55:08;10.10;;;7.77;;
17201;SDS011;8717;53.588;10.176;2023-11-21T02:57:36;12.50;;;8.83;;
17201;SDS011;8717;53.588;10.176;2023-11-21T03:00:03;14.43;;;8.07;;
17201;SDS011;8717;53.588;10.176;2023-11-21T03:02:33;10.70;;;7.97;;
17201;SDS011;8717;53.588;10.176;2023-11-21T03:05:01;10.00;;;7.83;;
17201;SDS011;8717;53.588;10.176;2023-11-21T03:07:30;12.03;;;8.60;;
17201;SDS011;8717;53.588;10.176;2023-11-21T03:09:57;10.87;;;8.17;;
17201;SDS011;8717;53.588;10.176;2023-11-21T03:12:24;9.43;;;7.73;;
17201;SDS011;8717;53.588;10.176;2023-11-21T03:14:52;13.37;;;8.87;;
17201;SDS011;8717;53.588;10.176;2023-11-21T03:17:20;11.47;;;8.33;;
17201;SDS011;8717;53.588;10.176;2023-11-21T03:19:47;10.97;;;8.13;;
17201;SDS011;8717;53.588;10.176;2023-11-21T03:22:14;10.13;;;8.10;;
17201;SDS011;8717;53.588;10.176;2023-11-21T03:24:40;10.77;;;8.73;;
17201;SDS011;8717;53.588;10.176;2023-11-21T03:27:07;10.60;;;8.53;;
17201;SDS011;8717;53.588;10.176;2023-11-21T03:29:34;10.37;;;8.13;;
17201;SDS011;8717;53.588;10.176;2023-11-21T03:32:02;10.80;;;7.87;;
17201;SDS011;8717;53.588;10.176;2023-11-21T03:34:29;13.00;;;8.67;;
17201;SDS011;8717;53.588;10.176;2023-11-21T03:36:56;10.63;;;7.80;;
17201;SDS011;8717;53.588;10.176;2023-11-21T03:39:23;12.90;;;8.43;;
17201;SDS011;8717;53.588;10.176;2023-11-21T03:41:50;9.23;;;7.47;;
17201;SDS011;8717;53.588;10.176;2023-11-21T03:44:17;10.67;;;7.80;;
17201;SDS011;8717;53.588;10.176;2023-11-21T03:46:44;9.63;;;7.57;;
17201;SDS011;8717;53.588;10.176;2023-11-21T03:49:12;10.40;;;8.00;;
17201;SDS011;8717;53.588;10.176;2023-11-21T03:51:40;12.13;;;7.97;;
17201;SDS011;8717;53.588;10.176;2023-11-21T03:54:07;10.50;;;7.63;;
17201;SDS011;8717;53.588;10.176;2023-11-21T03:56:36;10.50;;;7.97;;
17201;SDS011;8717;53.588;10.176;2023-11-21T03:59:03;10.33;;;7.53;;
17201;SDS011;8717;53.588;10.176;2023-11-21T04:01:30;9.93;;;7.93;;
17201;SDS011;8717;53.588;10.176;2023-11-21T04:03:57;10.00;;;7.70;;
17201;SDS011;8717;53.588;10.176;2023-11-21T04:06:25;9.67;;;7.43;;
17201;SDS011;8717;53.588;10.176;2023-11-21T04:08:52;11.10;;;7.73;;
17201;SDS011;8717;53.588;10.176;2023-11-21T04:11:19;9.87;;;7.37;;
17201;SDS011;8717;53.588;10.176;2023-11-21T04:13:46;10.80;;;8.17;;
17201;SDS011;8717;53.588;10.176;2023-11-21T04:16:13;10.53;;;8.47;;
17201;SDS011;8717;53.588;10.176;2023-11-21T04:18:40;10.27;;;8.20;;
17201;SDS011;8717;53.588;10.176;2023-11-21T04:21:07;11.77;;;8.90;;
17201;SDS011;8717;53.588;10.176;2023-11-21T04:23:36;9.60;;;8.23;;
17201;SDS011;8717;53.588;10.176;2023-11-21T04:26:05;11.53;;;9.03;;
17201;SDS011;8717;53.588;10.176;2023-11-21T04:28:32;11.60;;;8.97;;
17201;SDS011;8717;53.588;10.176;2023-11-21T04:30:59;12.20;;;9.60;;
17201;SDS011;8717;53.588;10.176;2023-11-21T04:33:27;13.53;;;9.00;;
17201;SDS011;8717;53.588;10.176;2023-11-21T04:35:55;10.40;;;8.33;;
17201;SDS011;8717;53.588;10.176;2023-11-21T04:38:22;11.90;;;9.97;;
17201;SDS011;8717;53.588;10.176;2023-11-21T04:40:50;11.70;;;8.80;;
17201;SDS011;8717;53.588;10.176;2023-11-21T04:43:17;11.90;;;9.67;;
17201;SDS011;8717;53.588;10.176;2023-11-21T04:45:44;11.93;;;9.03;;
17201;SDS011;8717;53.588;10.176;2023-11-21T04:48:10;12.17;;;9.20;;
17201;SDS011;8717;53.588;10.176;2023-11-21T04:50:37;11.63;;;9.10;;
17201;SDS011;8717;53.588;10.176;2023-11-21T04:53:04;10.73;;;8.67;;
17201;SDS011;8717;53.588;10.176;2023-11-21T04:55:31;10.17;;;8.07;;
17201;SDS011;8717;53.588;10.176;2023-11-21T04:57:59;12.33;;;8.80;;
17201;SDS011;8717;53.588;10.176;2023-11-21T05:00:26;11.37;;;8.47;;
17201;SDS011;8717;53.588;10.176;2023-11-21T05:02:53;10.47;;;8.53;;
17201;SDS011;8717;53.588;10.176;2023-11-21T05:05:20;10.53;;;8.63;;
17201;SDS011;8717;53.588;10.176;2023-11-21T05:07:47;13.63;;;9.40;;
17201;SDS011;8717;53.588;10.176;2023-11-21T05:10:14;10.53;;;8.53;;
17201;SDS011;8717;53.588;10.176;2023-11-21T05:12:41;10.23;;;8.23;;
17201;SDS011;8717;53.588;10.176;2023-11-21T05:15:09;11.20;;;8.87;;
17201;SDS011;8717;53.588;10.176;2023-11-21T05:17:40;9.67;;;7.97;;
17201;SDS011;8717;53.588;10.176;2023-11-21T05:20:08;9.43;;;7.53;;
17201;SDS011;8717;53.588;10.176;2023-11-21T05:22:36;10.50;;;8.17;;
17201;SDS011;8717;53.588;10.176;2023-11-21T05:25:03;8.83;;;7.53;;
17201;SDS011;8717;53.588;10.176;2023-11-21T05:27:32;9.33;;;7.73;;
17201;SDS011;8717;53.588;10.176;2023-11-21T05:30:00;22.00;;;8.87;;
17201;SDS011;8717;53.588;10.176;2023-11-21T05:32:28;10.10;;;7.70;;
17201;SDS011;8717;53.588;10.176;2023-11-21T05:34:55;9.63;;;7.57;;
17201;SDS011;8717;53.588;10.176;2023-11-21T05:37:22;10.60;;;8.27;;
17201;SDS011;8717;53.588;10.176;2023-11-21T05:39:49;10.90;;;8.60;;
17201;SDS011;8717;53.588;10.176;2023-11-21T05:42:16;13.83;;;8.40;;
17201;SDS011;8717;53.588;10.176;2023-11-21T05:44:42;10.20;;;8.33;;
17201;SDS011;8717;53.588;10.176;2023-11-21T05:47:08;11.80;;;8.10;;
17201;SDS011;8717;53.588;10.176;2023-11-21T05:49:37;12.03;;;7.83;;
17201;SDS011;8717;53.588;10.176;2023-11-21T05:52:04;11.37;;;8.57;;
17201;SDS011;8717;53.588;10.176;2023-11-21T05:54:31;9.27;;;7.53;;
17201;SDS011;8717;53.588;10.176;2023-11-21T05:56:59;11.17;;;8.33;;
17201;SDS011;8717;53.588;10.176;2023-11-21T05:59:26;11.03;;;8.03;;
17201;SDS011;8717;53.588;10.176;2023-11-21T06:01:53;10.40;;;8.40;;
17201;SDS011;8717;53.588;10.176;2023-11-21T06:04:20;10.37;;;8.00;;
17201;SDS011;8717;53.588;10.176;2023-11-21T06:06:51;11.17;;;8.40;;
17201;SDS011;8717;53.588;10.176;2023-11-21T06:09:18;10.40;;;8.50;;
17201;SDS011;8717;53.588;10.176;2023-11-21T06:11:45;13.67;;;8.53;;
17201;SDS011;8717;53.588;10.176;2023-11-21T06:14:12;10.97;;;8.23;;
17201;SDS011;8717;53.588;10.176;2023-11-21T06:16:43;9.73;;;7.63;;
17201;SDS011;8717;53.588;10.176;2023-11-21T06:19:10;10.03;;;7.90;;
17201;SDS011;8717;53.588;10.176;2023-11-21T06:21:37;11.67;;;9.10;;
17201;SDS011;8717;53.588;10.176;2023-11-21T06:24:05;10.67;;;8.70;;
17201;SDS011;8717;53.588;10.176;2023-11-21T06:26:32;12.37;;;9.03;;
17201;SDS011;8717;53.588;10.176;2023-11-21T06:28:59;12.03;;;8.97;;
17201;SDS011;8717;53.588;10.176;2023-11-21T06:31:29;11.40;;;8.60;;
17201;SDS011;8717;53.588;10.176;2023-11-21T06:33:57;13.40;;;8.77;;
17201;SDS011;8717;53.588;10.176;2023-11-21T06:36:24;11.47;;;8.50;;
17201;SDS011;8717;53.588;10.176;2023-11-21T06:38:51;9.63;;;8.00;;
17201;SDS011;8717;53.588;10.176;2023-11-21T06:41:19;9.73;;;8.40;;
17201;SDS011;8717;53.588;10.176;2023-11-21T06:43:46;11.60;;;8.67;;
17201;SDS011;8717;53.588;10.176;2023-11-21T06:46:14;14.47;;;9.10;;
17201;SDS011;8717;53.588;10.176;2023-11-21T06:48:42;11.67;;;8.57;;
17201;SDS011;8717;53.588;10.176;2023-11-21T06:51:09;12.83;;;9.07;;
17201;SDS011;8717;53.588;10.176;2023-11-21T06:53:36;11.50;;;8.60;;
17201;SDS011;8717;53.588;10.176;2023-11-21T06:56:03;10.60;;;8.53;;
17201;SDS011;8717;53.588;10.176;2023-11-21T06:58:32;11.73;;;9.13;;
17201;SDS011;8717;53.588;10.176;2023-11-21T07:01:00;9.80;;;8.60;;
17201;SDS011;8717;53.588;10.176;2023-11-21T07:03:27;10.73;;;8.00;;
17201;SDS011;8717;53.588;10.176;2023-11-21T07:05:53;11.83;;;9.67;;
17201;SDS011;8717;53.588;10.176;2023-11-21T07:08:20;15.07;;;13.00;;
17201;SDS011;8717;53.588;10.176;2023-11-21T07:10:47;10.83;;;9.60;;
17201;SDS011;8717;53.588;10.176;2023-11-21T07:13:14;9.40;;;8.37;;
17201;SDS011;8717;53.588;10.176;2023-11-21T07:15:42;11.23;;;8.83;;
17201;SDS011;8717;53.588;10.176;2023-11-21T07:18:09;10.67;;;8.70;;
17201;SDS011;8717;53.588;10.176;2023-11-21T07:20:36;13.10;;;9.67;;
17201;SDS011;8717;53.588;10.176;2023-11-21T07:23:03;26.47;;;18.63;;
17201;SDS011;8717;53.588;10.176;2023-11-21T07:25:30;12.23;;;10.17;;
17201;SDS011;8717;53.588;10.176;2023-11-21T07:27:58;10.93;;;7.67;;
17201;SDS011;8717;53.588;10.176;2023-11-21T07:30:25;9.30;;;7.80;;
17201;SDS011;8717;53.588;10.176;2023-11-21T07:32:53;9.87;;;7.83;;
17201;SDS011;8717;53.588;10.176;2023-11-21T07:35:20;11.50;;;9.47;;
17201;SDS011;8717;53.588;10.176;2023-11-21T07:37:47;9.53;;;7.47;;
17201;SDS011;8717;53.588;10.176;2023-11-21T07:40:14;8.93;;;7.50;;
17201;SDS011;8717;53.588;10.176;2023-11-21T07:42:42;11.47;;;10.10;;
17201;SDS011;8717;53.588;10.176;2023-11-21T07:45:09;10.83;;;9.73;;
17201;SDS011;8717;53.588;10.176;2023-11-21T07:47:36;8.73;;;6.73;;
17201;SDS011;8717;53.588;10.176;2023-11-21T07:50:06;9.03;;;8.00;;
17201;SDS011;8717;53.588;10.176;2023-11-21T07:52:33;8.27;;;7.13;;
17201;SDS011;8717;53.588;10.176;2023-11-21T07:55:00;8.47;;;6.40;;
17201;SDS011;8717;53.588;10.176;2023-11-21T07:57:27;9.27;;;6.63;;
17201;SDS011;8717;53.588;10.176;2023-11-21T07:59:54;9.10;;;6.60;;
17201;SDS011;8717;53.588;10.176;2023-11-21T08:02:21;6.70;;;5.80;;
17201;SDS011;8717;53.588;10.176;2023-11-21T08:04:48;9.20;;;5.97;;
17201;SDS011;8717;53.588;10.176;2023-11-21T08:07:17;6.43;;;5.47;;
17201;SDS011;8717;53.588;10.176;2023-11-21T08:09:43;8.57;;;5.60;;
17201;SDS011;8717;53.588;10.176;2023-11-21T08:12:11;7.17;;;5.70;;
17201;SDS011;8717;53.588;10.176;2023-11-21T08:14:39;7.90;;;6.03;;
17201;SDS011;8717;53.588;10.176;2023-11-21T08:17:06;9.77;;;5.80;;
17201;SDS011;8717;53.588;10.176;2023-11-21T08:19:35;6.87;;;5.23;;
17201;SDS011;8717;53.588;10.176;2023-11-21T08:22:02;8.40;;;5.90;;
17201;SDS011;8717;53.588;10.176;2023-11-21T08:24:30;14.27;;;11.07;;
17201;SDS011;8717;53.588;10.176;2023-11-21T08:26:57;8.63;;;7.07;;
17201;SDS011;8717;53.588;10.176;2023-11-21T08:29:24;7.00;;;5.70;;
17201;SDS011;8717;53.588;10.176;2023-11-21T08:31:51;11.10;;;9.97;;
17201;SDS011;8717;53.588;10.176;2023-11-21T08:34:18;5.77;;;4.83;;
17201;SDS011;8717;53.588;10.176;2023-11-21T08:36:45;7.43;;;5.80;;
17201;SDS011;8717;53.588;10.176;2023-11-21T08:39:12;7.20;;;6.50;;
17201;SDS011;8717;53.588;10.176;2023-11-21T08:41:42;7.23;;;6.37;;
17201;SDS011;8717;53.588;10.176;2023-11-21T08:44:09;5.50;;;4.30;;
17201;SDS011;8717;53.588;10.176;2023-11-21T08:46:36;6.27;;;4.37;;
17201;SDS011;8717;53.588;10.176;2023-11-21T08:49:04;5.43;;;4.13;;
17201;SDS011;8717;53.588;10.176;2023-11-21T08:51:31;6.57;;;5.83;;
17201;SDS011;8717;53.588;10.176;2023-11-21T08:53:58;6.77;;;5.30;;
17201;SDS011;8717;53.588;10.176;2023-11-21T08:56:27;6.73;;;4.80;;
17201;SDS011;8717;53.588;10.176;2023-11-21T08:58:55;6.03;;;4.73;;
17201;SDS011;8717;53.588;10.176;2023-11-21T09:01:22;6.90;;;5.23;;
17201;SDS011;8717;53.588;10.176;2023-11-21T09:03:49;7.03;;;5.63;;
17201;SDS011;8717;53.588;10.176;2023-11-21T09:06:16;5.40;;;4.90;;
17201;SDS011;8717;53.588;10.176;2023-11-21T09:08:44;5.40;;;4.30;;
17201;SDS011;8717;53.588;10.176;2023-11-21T09:11:10;7.93;;;4.37;;
17201;SDS011;8717;53.588;10.176;2023-11-21T09:13:37;5.43;;;3.83;;
17201;SDS011;8717;53.588;10.176;2023-11-21T09:16:06;6.60;;;3.50;;
17201;SDS011;8717;53.588;10.176;2023-11-21T09:18:33;5.77;;;4.30;;
17201;SDS011;8717;53.588;10.176;2023-11-21T09:21:00;4.37;;;3.67;;
17201;SDS011;8717;53.588;10.176;2023-11-21T09:23:26;6.23;;;3.73;;
17201;SDS011;8717;53.588;10.176;2023-11-21T09:25:53;5.03;;;3.87;;
17201;SDS011;8717;53.588;10.176;2023-11-21T09:28:22;6.13;;;3.87;;
17201;SDS011;8717;53.588;10.176;2023-11-21T09:30:49;4.50;;;3.80;;
17201;SDS011;8717;53.588;10.176;2023-11-21T09:33:17;6.07;;;3.90;;
17201;SDS011;8717;53.588;10.176;2023-11-21T09:35:44;5.53;;;3.80;;
17201;SDS011;8717;53.588;10.176;2023-11-21T09:38:10;4.30;;;3.80;;
17201;SDS011;8717;53.588;10.176;2023-11-21T09:40:37;5.90;;;3.67;;
17201;SDS011;8717;53.588;10.176;2023-11-21T09:43:05;4.33;;;2.80;;
17201;SDS011;8717;53.588;10.176;2023-11-21T09:45:34;5.17;;;3.50;;
17201;SDS011;8717;53.588;10.176;2023-11-21T09:48:04;3.57;;;3.20;;
17201;SDS011;8717;53.588;10.176;2023-11-21T09:50:33;18.20;;;11.70;;
17201;SDS011;8717;53.588;10.176;2023-11-21T09:53:13;6.53;;;5.50;;
17201;SDS011;8717;53.588;10.176;2023-11-21T09:55:44;5.83;;;4.33;;
17201;SDS011;8717;53.588;10.176;2023-11-21T09:58:13;9.13;;;7.17;;
17201;SDS011;8717;53.588;10.176;2023-11-21T10:00:41;5.83;;;3.67;;
17201;SDS011;8717;53.588;10.176;2023-11-21T10:03:08;4.97;;;4.47;;
17201;SDS011;8717;53.588;10.176;2023-11-21T10:05:36;4.23;;;3.70;;
17201;SDS011;8717;53.588;10.176;2023-11-21T10:08:04;4.83;;;3.53;;
17201;SDS011;8717;53.588;10.176;2023-11-21T10:10:35;4.23;;;3.47;;
17201;SDS011;8717;53.588;10.176;2023-11-21T10:13:02;4.70;;;3.97;;
17201;SDS011;8717;53.588;10.176;2023-11-21T10:15:33;4.70;;;3.83;;
17201;SDS011;8717;53.588;10.176;2023-11-21T10:18:01;4.93;;;3.33;;
17201;SDS011;8717;53.588;10.176;2023-11-21T10:20:29;6.40;;;3.80;;
17201;SDS011;8717;53.588;10.176;2023-11-21T10:23:00;5.00;;;3.47;;
17201;SDS011;8717;53.588;10.176;2023-11-21T10:25:28;4.77;;;3.43;;
17201;SDS011;8717;53.588;10.176;2023-11-21T10:27:57;3.40;;;2.80;;
17201;SDS011;8717;53.588;10.176;2023-11-21T10:30:27;3.87;;;3.13;;
17201;SDS011;8717;53.588;10.176;2023-11-21T10:32:58;14.03;;;9.83;;
17201;SDS011;8717;53.588;10.176;2023-11-21T10:35:29;7.73;;;5.93;;
17201;SDS011;8717;53.588;10.176;2023-11-21T10:38:06;6.57;;;5.70;;
17201;SDS011;8717;53.588;10.176;2023-11-21T10:40:37;7.97;;;5.20;;
17201;SDS011;8717;53.588;10.176;2023-11-21T10:43:06;4.97;;;3.63;;
17201;SDS011;8717;53.588;10.176;2023-11-21T10:45:34;4.33;;;3.93;;
17201;SDS011;8717;53.588;10.176;2023-11-21T10:48:04;5.17;;;3.57;;
17201;SDS011;8717;53.588;10.176;2023-11-21T10:50:33;5.37;;;3.90;;
17201;SDS011;8717;53.588;10.176;2023-11-21T10:53:01;5.17;;;4.53;;
17201;SDS011;8717;53.588;10.176;2023-11-21T10:55:30;16.87;;;13.53;;
17201;SDS011;8717;53.588;10.176;2023-11-21T10:57:58;5.83;;;4.03;;
17201;SDS011;8717;53.588;10.176;2023-11-21T11:00:27;3.80;;;3.07;;
17201;SDS011;8717;53.588;10.176;2023-11-21T11:02:54;3.90;;;3.10;;
17201;SDS011;8717;53.588;10.176;2023-11-21T11:05:22;5.40;;;2.90;;
17201;SDS011;8717;53.588;10.176;2023-11-21T11:07:51;3.40;;;2.80;;
17201;SDS011;8717;53.588;10.176;2023-11-21T11:10:24;5.17;;;4.17;;
17201;SDS011;8717;53.588;10.176;2023-11-21T11:12:53;5.07;;;2.83;;
17201;SDS011;8717;53.588;10.176;2023-11-21T11:15:20;4.20;;;2.83;;
17201;SDS011;8717;53.588;10.176;2023-11-21T11:17:48;4.13;;;3.03;;
17201;SDS011;8717;53.588;10.176;2023-11-21T11:20:15;3.33;;;2.93;;
17201;SDS011;8717;53.588;10.176;2023-11-21T11:22:48;5.47;;;3.50;;
17201;SDS011;8717;53.588;10.176;2023-11-21T11:25:29;4.80;;;3.97;;
17201;SDS011;8717;53.588;10.176;2023-11-21T11:28:06;7.47;;;6.43;;
17201;SDS011;8717;53.588;10.176;2023-11-21T11:30:41;4.60;;;3.40;;
17201;SDS011;8717;53.588;10.176;2023-11-21T11:33:14;5.00;;;3.03;;
17201;SDS011;8717;53.588;10.176;2023-11-21T11:35:52;3.90;;;2.90;;
17201;SDS011;8717;53.588;10.176;2023-11-21T11:38:27;5.47;;;3.70;;
17201;SDS011;8717;53.588;10.176;2023-11-21T11:40:59;5.60;;;2.80;;
17201;SDS011;8717;53.588;10.176;2023-11-21T11:43:30;4.97;;;3.30;;
17201;SDS011;8717;53.588;10.176;2023-11-21T11:46:05;6.67;;;4.83;;
17201;SDS011;8717;53.588;10.176;2023-11-21T11:48:34;4.80;;;3.07;;
17201;SDS011;8717;53.588;10.176;2023-11-21T11:51:05;4.97;;;3.37;;
17201;SDS011;8717;53.588;10.176;2023-11-21T11:53:37;5.13;;;2.80;;
17201;SDS011;8717;53.588;10.176;2023-11-21T11:56:22;5.00;;;2.97;;
17201;SDS011;8717;53.588;10.176;2023-11-21T11:58:53;5.17;;;3.40;;
17201;SDS011;8717;53.588;10.176;2023-11-21T12:01:21;4.27;;;3.37;;
17201;SDS011;8717;53.588;10.176;2023-11-21T12:06:56;30.13;;;15.97;;
17201;SDS011;8717;53.588;10.176;2023-11-21T12:09:27;7.90;;;5.53;;
17201;SDS011;8717;53.588;10.176;2023-11-21T12:11:55;4.07;;;3.37;;
17201;SDS011;8717;53.588;10.176;2023-11-21T12:14:23;17.10;;;10.33;;
17201;SDS011;8717;53.588;10.176;2023-11-21T12:16:50;4.77;;;3.57;;
17201;SDS011;8717;53.588;10.176;2023-11-21T12:19:18;6.77;;;5.10;;
17201;SDS011;8717;53.588;10.176;2023-11-21T12:21:46;6.17;;;5.53;;
17201;SDS011;8717;53.588;10.176;2023-11-21T12:24:14;4.20;;;3.80;;
17201;SDS011;8717;53.588;10.176;2023-11-21T12:26:41;6.07;;;4.90;;
17201;SDS011;8717;53.588;10.176;2023-11-21T12:29:09;3.90;;;3.30;;
17201;SDS011;8717;53.588;10.176;2023-11-21T12:31:37;5.60;;;3.93;;
17201;SDS011;8717;53.588;10.176;2023-11-21T12:34:04;4.00;;;2.93;;
17201;SDS011;8717;53.588;10.176;2023-11-21T12:36:31;3.47;;;3.17;;
17201;SDS011;8717;53.588;10.176;2023-11-21T12:38:59;5.00;;;3.23;;
17201;SDS011;8717;53.588;10.176;2023-11-21T12:41:27;5.03;;;3.10;;
17201;SDS011;8717;53.588;10.176;2023-11-21T12:43:55;3.63;;;2.83;;
17201;SDS011;8717;53.588;10.176;2023-11-21T12:46:22;3.70;;;3.00;;
17201;SDS011;8717;53.588;10.176;2023-11-21T12:48:52;5.60;;;3.73;;
17201;SDS011;8717;53.588;10.176;2023-11-21T12:51:19;4.97;;;3.33;;
17201;SDS011;8717;53.588;10.176;2023-11-21T12:53:47;11.77;;;6.80;;
17201;SDS011;8717;53.588;10.176;2023-11-21T12:56:15;7.30;;;4.80;;
17201;SDS011;8717;53.588;10.176;2023-11-21T12:58:44;3.03;;;2.60;;
17201;SDS011;8717;53.588;10.176;2023-11-21T13:01:13;5.97;;;3.67;;
17201;SDS011;8717;53.588;10.176;2023-11-21T13:03:44;5.87;;;4.13;;
17201;SDS011;8717;53.588;10.176;2023-11-21T13:06:17;6.27;;;3.87;;
17201;SDS011;8717;53.588;10.176;2023-11-21T13:08:49;5.50;;;3.73;;
17201;SDS011;8717;53.588;10.176;2023-11-21T13:11:16;4.23;;;3.20;;
17201;SDS011;8717;53.588;10.176;2023-11-21T13:13:43;4.60;;;3.30;;
17201;SDS011;8717;53.588;10.176;2023-11-21T13:16:10;6.10;;;3.90;;
17201;SDS011;8717;53.588;10.176;2023-11-21T13:18:38;5.40;;;3.30;;
17201;SDS011;8717;53.588;10.176;2023-11-21T13:21:07;3.50;;;3.03;;
17201;SDS011;8717;53.588;10.176;2023-11-21T13:23:40;4.97;;;3.17;;
17201;SDS011;8717;53.588;10.176;2023-11-21T13:26:08;3.90;;;3.03;;
17201;SDS011;8717;53.588;10.176;2023-11-21T13:28:39;3.93;;;2.90;;
17201;SDS011;8717;53.588;10.176;2023-11-21T13:31:11;4.57;;;2.70;;
17201;SDS011;8717;53.588;10.176;2023-11-21T13:33:46;3.80;;;3.20;;
17201;SDS011;8717;53.588;10.176;2023-11-21T13:36:19;3.83;;;2.80;;
17201;SDS011;8717;53.588;10.176;2023-11-21T13:38:50;4.40;;;3.17;;
17201;SDS011;8717;53.588;10.176;2023-11-21T13:41:18;3.90;;;3.00;;
17201;SDS011;8717;53.588;10.176;2023-11-21T13:43:47;3.60;;;2.93;;
17201;SDS011;8717;53.588;10.176;2023-11-21T13:46:22;3.77;;;2.67;;
17201;SDS011;8717;53.588;10.176;2023-11-21T13:48:49;3.17;;;2.63;;
17201;SDS011;8717;53.588;10.176;2023-11-21T13:51:20;4.57;;;2.43;;
17201;SDS011;8717;53.588;10.176;2023-11-21T13:53:57;3.67;;;2.67;;
17201;SDS011;8717;53.588;10.176;2023-11-21T13:56:24;3.73;;;2.87;;
17201;SDS011;8717;53.588;10.176;2023-11-21T13:58:53;3.97;;;2.70;;
17201;SDS011;8717;53.588;10.176;2023-11-21T14:01:21;4.07;;;3.03;;
17201;SDS011;8717;53.588;10.176;2023-11-21T14:04:10;6.93;;;4.67;;
17201;SDS011;8717;53.588;10.176;2023-11-21T14:06:45;4.20;;;3.80;;
17201;SDS011;8717;53.588;10.176;2023-11-21T14:09:15;3.73;;;2.97;;
17201;SDS011;8717;53.588;10.176;2023-11-21T14:11:51;3.10;;;2.23;;
17201;SDS011;8717;53.588;10.176;2023-11-21T14:14:18;5.67;;;3.50;;
17201;SDS011;8717;53.588;10.176;2023-11-21T14:16:45;4.90;;;4.40;;
17201;SDS011;8717;53.588;10.176;2023-11-21T14:19:12;3.97;;;3.17;;
17201;SDS011;8717;53.588;10.176;2023-11-21T14:21:42;3.50;;;2.83;;
17201;SDS011;8717;53.588;10.176;2023-11-21T14:24:10;6.67;;;4.90;;
17201;SDS011;8717;53.588;10.176;2023-11-21T14:26:39;2.70;;;2.50;;
17201;SDS011;8717;53.588;10.176;2023-11-21T14:29:07;3.57;;;2.30;;
17201;SDS011;8717;53.588;10.176;2023-11-21T14:31:37;5.70;;;2.83;;
17201;SDS011;8717;53.588;10.176;2023-11-21T14:34:04;4.13;;;2.40;;
17201;SDS011;8717;53.588;10.176;2023-11-21T14:36:31;3.97;;;3.27;;
17201;SDS011;8717;53.588;10.176;2023-11-21T14:38:58;2.83;;;2.37;;
17201;SDS011;8717;53.588;10.176;2023-11-21T14:41:25;3.63;;;2.57;;
17201;SDS011;8717;53.588;10.176;2023-11-21T14:43:54;3.27;;;2.50;;
17201;SDS011;8717;53.588;10.176;2023-11-21T14:46:22;3.67;;;2.50;;
17201;SDS011;8717;53.588;10.176;2023-11-21T14:48:49;3.27;;;2.27;;